sensor_id;sensor_type;location;lat;lon;timestamp;pressure;altitude;pressure_sealevel;temperature;humidity
34983;BME280;21187;50.976;13.720;2023-11-22T00:02:49;98776.78;;;3.99;57.82
34983;BME280;21187;50.976;13.720;2023-11-22T00:07:51;98776.59;;;3.96;57.85
34983;BME280;21187;50.976;13.720;2023-11-22T00:12:53;98770.41;;;3.95;58.18
34983;BME280;21187;50.976;13.720;2023-11-22T00:17:55;98773.59;;;3.97;58.13
34983;BME280;21187;50.976;13.720;2023-11-22T00:22:59;98778.75;;;3.94;58.16
34983;BME280;21187;50.976;13.720;2023-11-22T00:28:01;98783.09;;;3.90;58.13
34983;BME280;21187;50.976;13.720;2023-11-22T00:33:03;98790.69;;;3.82;58.14
34983;BME280;21187;50.976;13.720;2023-11-22T00:38:06;98782.56;;;3.88;58.67
34983;BME280;21187;50.976;13.720;2023-11-22T00:43:08;98785.41;;;3.96;58.85
34983;BME280;21187;50.976;13.720;2023-11-22T00:48:10;98804.94;;;3.97;58.58
34983;BME280;21187;50.976;13.720;2023-11-22T00:53:12;98812.50;;;3.95;58.26
34983;BME280;21187;50.976;13.720;2023-11-22T00:58:17;98819.00;;;3.89;58.16
34983;BME280;21187;50.976;13.720;2023-11-22T01:03:19;98815.63;;;3.83;58.43
34983;BME280;21187;50.976;13.720;2023-11-22T01:08:21;98825.25;;;3.84;58.15
34983;BME280;21187;50.976;13.720;2023-11-22T01:13:23;98839.22;;;3.81;58.55
34983;BME280;21187;50.976;13.720;2023-11-22T01:18:25;98837.97;;;3.73;58.48
34983;BME280;21187;50.976;13.720;2023-11-22T01:23:27;98856.22;;;3.71;58.59
34983;BME280;21187;50.976;13.720;2023-11-22T01:28:29;98870.69;;;3.70;58.61
34983;BME280;21187;50.976;13.720;2023-11-22T01:33:35;98870.09;;;3.73;58.13
34983;BME280;21187;50.976;13.720;2023-11-22T01:38:38;98876.72;;;3.81;58.56
34983;BME280;21187;50.976;13.720;2023-11-22T01:43:41;98885.84;;;3.80;58.15
34983;BME280;21187;50.976;13.720;2023-11-22T01:48:43;98888.81;;;3.78;58.47
34983;BME280;21187;50.976;13.720;2023-11-22T01:53:46;98887.19;;;3.77;58.15
34983;BME280;21187;50.976;13.720;2023-11-22T01:58:49;98877.53;;;3.81;58.26
34983;BME280;21187;50.976;13.720;2023-11-22T02:03:52;98884.47;;;3.82;58.00
34983;BME280;21187;50.976;13.720;2023-11-22T02:08:55;98883.38;;;3.83;58.19
34983;BME280;21187;50.976;13.720;2023-11-22T02:13:57;98872.16;;;3.81;58.41
34983;BME280;21187;50.976;13.720;2023-11-22T02:18:59;98878.59;;;3.80;58.40
34983;BME280;21187;50.976;13.720;2023-11-22T02:24:01;98888.00;;;3.78;58.12
34983;BME280;21187;50.976;13.720;2023-11-22T02:29:03;98887.56;;;3.71;58.60
34983;BME280;21187;50.976;13.720;2023-11-22T02:34:08;98903.84;;;3.74;58.53
34983;BME280;21187;50.976;13.720;2023-11-22T02:39:10;98910.81;;;3.75;58.54
34983;BME280;21187;50.976;13.720;2023-11-22T02:44:12;98920.22;;;3.73;58.32
34983;BME280;21187;50.976;13.720;2023-11-22T02:49:18;98925.63;;;3.67;57.79
34983;BME280;21187;50.976;13.720;2023-11-22T02:54:21;98932.94;;;3.62;57.60
34983;BME280;21187;50.976;13.720;2023-11-22T02:59:23;98929.72;;;3.60;57.72
34983;BME280;21187;50.976;13.720;2023-11-22T03:04:25;98934.59;;;3.58;57.75
34983;BME280;21187;50.976;13.720;2023-11-22T03:09:27;98941.25;;;3.60;57.93
34983;BME280;21187;50.976;13.720;2023-11-22T03:14:29;98931.88;;;3.63;58.22
34983;BME280;21187;50.976;13.720;2023-11-22T03:19:31;98936.69;;;3.61;58.02
34983;BME280;21187;50.976;13.720;2023-11-22T03:24:35;98945.81;;;3.60;57.98
34983;BME280;21187;50.976;13.720;2023-11-22T03:29:38;98950.66;;;3.58;58.31
34983;BME280;21187;50.976;13.720;2023-11-22T03:34:40;98962.44;;;3.57;57.88
34983;BME280;21187;50.976;13.720;2023-11-22T03:39:42;98965.63;;;3.59;57.64
34983;BME280;21187;50.976;13.720;2023-11-22T03:44:50;98986.78;;;3.60;58.20
34983;BME280;21187;50.976;13.720;2023-11-22T03:49:52;99000.41;;;3.64;58.00
34983;BME280;21187;50.976;13.720;2023-11-22T03:54:54;99007.38;;;3.65;57.81
34983;BME280;21187;50.976;13.720;2023-11-22T03:59:56;99012.31;;;3.53;58.18
34983;BME280;21187;50.976;13.720;2023-11-22T04:04:58;99018.59;;;3.67;58.05
34983;BME280;21187;50.976;13.720;2023-11-22T04:10:00;99033.38;;;3.64;57.67
34983;BME280;21187;50.976;13.720;2023-11-22T04:15:02;99037.34;;;3.67;58.04
34983;BME280;21187;50.976;13.720;2023-11-22T04:20:06;99037.13;;;3.63;57.88
34983;BME280;21187;50.976;13.720;2023-11-22T04:25:12;99059.66;;;3.57;58.18
34983;BME280;21187;50.976;13.720;2023-11-22T04:30:17;99065.66;;;3.44;57.97
34983;BME280;21187;50.976;13.720;2023-11-22T04:35:19;99078.00;;;3.40;57.76
34983;BME280;21187;50.976;13.720;2023-11-22T04:40:21;99086.38;;;3.33;57.57
34983;BME280;21187;50.976;13.720;2023-11-22T04:45:23;99095.47;;;3.32;58.08
34983;BME280;21187;50.976;13.720;2023-11-22T04:50:24;99092.50;;;3.33;58.16
34983;BME280;21187;50.976;13.720;2023-11-22T04:55:27;99112.09;;;3.29;58.24
34983;BME280;21187;50.976;13.720;2023-11-22T05:00:29;99107.25;;;3.31;57.51
34983;BME280;21187;50.976;13.720;2023-11-22T05:05:31;99108.06;;;3.31;57.79
34983;BME280;21187;50.976;13.720;2023-11-22T05:10:33;99122.81;;;3.29;57.58
34983;BME280;21187;50.976;13.720;2023-11-22T05:15:35;99131.91;;;3.28;58.07
34983;BME280;21187;50.976;13.720;2023-11-22T05:20:37;99133.53;;;3.29;57.56
34983;BME280;21187;50.976;13.720;2023-11-22T05:25:39;99140.50;;;3.25;58.10
34983;BME280;21187;50.976;13.720;2023-11-22T05:30:41;99128.22;;;3.19;57.94
34983;BME280;21187;50.976;13.720;2023-11-22T05:35:44;99142.13;;;3.21;57.81
34983;BME280;21187;50.976;13.720;2023-11-22T05:40:46;99136.69;;;3.31;57.24
34983;BME280;21187;50.976;13.720;2023-11-22T05:45:48;99132.94;;;3.32;57.48
34983;BME280;21187;50.976;13.720;2023-11-22T05:50:51;99141.53;;;3.34;57.09
34983;BME280;21187;50.976;13.720;2023-11-22T05:55:53;99150.38;;;3.29;57.51
34983;BME280;21187;50.976;13.720;2023-11-22T06:00:55;99142.38;;;3.24;57.28
34983;BME280;21187;50.976;13.720;2023-11-22T06:05:57;99151.97;;;3.30;57.51
34983;BME280;21187;50.976;13.720;2023-11-22T06:10:59;99156.00;;;3.28;57.02
34983;BME280;21187;50.976;13.720;2023-11-22T06:16:01;99161.66;;;3.26;57.82
34983;BME280;21187;50.976;13.720;2023-11-22T06:21:04;99170.47;;;3.27;57.10
34983;BME280;21187;50.976;13.720;2023-11-22T06:26:07;99181.44;;;3.25;57.16
34983;BME280;21187;50.976;13.720;2023-11-22T06:31:09;99191.59;;;3.28;57.56
34983;BME280;21187;50.976;13.720;2023-11-22T06:36:11;99208.50;;;3.24;57.74
34983;BME280;21187;50.976;13.720;2023-11-22T06:41:14;99211.72;;;3.21;57.83
34983;BME280;21187;50.976;13.720;2023-11-22T06:46:19;99210.38;;;3.23;57.55
34983;BME280;21187;50.976;13.720;2023-11-22T06:51:20;99223.72;;;3.28;57.29
34983;BME280;21187;50.976;13.720;2023-11-22T06:56:23;99249.72;;;3.28;57.23
34983;BME280;21187;50.976;13.720;2023-11-22T07:01:25;99260.16;;;3.24;57.89
34983;BME280;21187;50.976;13.720;2023-11-22T07:06:27;99264.72;;;3.24;57.22
34983;BME280;21187;50.976;13.720;2023-11-22T07:11:29;99263.13;;;3.23;58.03
34983;BME280;21187;50.976;13.720;2023-11-22T07:16:33;99246.50;;;3.26;57.63
34983;BME280;21187;50.976;13.720;2023-11-22T07:21:35;99237.13;;;3.23;57.44
34983;BME280;21187;50.976;13.720;2023-11-22T07:26:39;99248.13;;;3.22;57.80
34983;BME280;21187;50.976;13.720;2023-11-22T07:31:41;99236.34;;;3.23;57.91
34983;BME280;21187;50.976;13.720;2023-11-22T07:36:44;99244.09;;;3.24;57.75
34983;BME280;21187;50.976;13.720;2023-11-22T07:41:46;99259.38;;;3.24;57.93
34983;BME280;21187;50.976;13.720;2023-11-22T07:46:51;99277.84;;;3.25;57.49
34983;BME280;21187;50.976;13.720;2023-11-22T07:51:53;99293.91;;;3.25;57.62
34983;BME280;21187;50.976;13.720;2023-11-22T07:56:55;99306.22;;;3.21;57.32
34983;BME280;21187;50.976;13.720;2023-11-22T08:01:57;99310.25;;;3.19;57.28
34983;BME280;21187;50.976;13.720;2023-11-22T08:06:59;99314.53;;;3.14;57.53
34983;BME280;21187;50.976;13.720;2023-11-22T08:12:03;99316.94;;;3.16;57.38
34983;BME280;21187;50.976;13.720;2023-11-22T08:17:07;99334.84;;;3.21;57.76
34983;BME280;21187;50.976;13.720;2023-11-22T08:22:09;99345.03;;;3.24;57.43
34983;BME280;21187;50.976;13.720;2023-11-22T08:27:11;99341.28;;;3.25;57.46
34983;BME280;21187;50.976;13.720;2023-11-22T08:32:14;99339.69;;;3.24;57.53
34983;BME280;21187;50.976;13.720;2023-11-22T08:37:16;99332.16;;;3.26;57.17
34983;BME280;21187;50.976;13.720;2023-11-22T08:42:17;99343.97;;;3.25;57.08
34983;BME280;21187;50.976;13.720;2023-11-22T08:47:19;99350.91;;;3.26;57.50
34983;BME280;21187;50.976;13.720;2023-11-22T08:52:21;99345.84;;;3.14;57.34
34983;BME280;21187;50.976;13.720;2023-11-22T08:57:25;99336.47;;;3.22;57.37
34983;BME280;21187;50.976;13.720;2023-11-22T09:02:27;99338.06;;;3.33;57.18
34983;BME280;21187;50.976;13.720;2023-11-22T09:07:31;99328.94;;;3.39;57.30
34983;BME280;21187;50.976;13.720;2023-11-22T09:12:33;99333.75;;;3.32;57.26
34983;BME280;21187;50.976;13.720;2023-11-22T09:17:39;99341.78;;;3.42;57.28
34983;BME280;21187;50.976;13.720;2023-11-22T09:22:49;99341.22;;;3.45;56.96
34983;BME280;21187;50.976;13.720;2023-11-22T09:27:53;99348.44;;;3.45;56.68
34983;BME280;21187;50.976;13.720;2023-11-22T09:33:02;99361.56;;;3.46;56.95
34983;BME280;21187;50.976;13.720;2023-11-22T09:38:06;99358.09;;;3.46;57.17
34983;BME280;21187;50.976;13.720;2023-11-22T09:43:12;99355.16;;;3.47;56.91
34983;BME280;21187;50.976;13.720;2023-11-22T09:48:18;99347.09;;;3.53;56.84
34983;BME280;21187;50.976;13.720;2023-11-22T09:58:41;99347.38;;;3.51;57.21
34983;BME280;21187;50.976;13.720;2023-11-22T10:03:46;99346.00;;;3.54;57.14
34983;BME280;21187;50.976;13.720;2023-11-22T10:08:49;99336.38;;;3.58;56.75
34983;BME280;21187;50.976;13.720;2023-11-22T10:13:51;99344.94;;;3.55;56.43
34983;BME280;21187;50.976;13.720;2023-11-22T10:18:53;99351.34;;;3.59;56.70
34983;BME280;21187;50.976;13.720;2023-11-22T10:23:57;99356.69;;;3.59;56.51
34983;BME280;21187;50.976;13.720;2023-11-22T10:28:59;99355.13;;;3.58;56.55
34983;BME280;21187;50.976;13.720;2023-11-22T10:34:02;99347.59;;;3.60;56.71
34983;BME280;21187;50.976;13.720;2023-11-22T10:39:08;99329.88;;;3.69;56.20
34983;BME280;21187;50.976;13.720;2023-11-22T10:44:13;99320.75;;;3.75;56.61
34983;BME280;21187;50.976;13.720;2023-11-22T10:49:17;99327.69;;;3.81;56.55
34983;BME280;21187;50.976;13.720;2023-11-22T10:54:22;99329.53;;;3.86;56.57
34983;BME280;21187;50.976;13.720;2023-11-22T10:59:28;99333.25;;;3.90;56.48
34983;BME280;21187;50.976;13.720;2023-11-22T11:04:42;99337.22;;;3.98;56.31
34983;BME280;21187;50.976;13.720;2023-11-22T11:09:49;99344.19;;;3.99;55.56
34983;BME280;21187;50.976;13.720;2023-11-22T11:14:52;99374.19;;;4.01;55.88
34983;BME280;21187;50.976;13.720;2023-11-22T11:19:54;99394.06;;;4.00;56.23
34983;BME280;21187;50.976;13.720;2023-11-22T11:25:05;99398.38;;;3.96;55.37
34983;BME280;21187;50.976;13.720;2023-11-22T11:35:52;99400.19;;;4.00;55.47
34983;BME280;21187;50.976;13.720;2023-11-22T11:41:11;99375.75;;;4.12;55.78
34983;BME280;21187;50.976;13.720;2023-11-22T11:46:15;99381.38;;;4.16;55.60
34983;BME280;21187;50.976;13.720;2023-11-22T11:51:23;99388.09;;;4.13;55.25
34983;BME280;21187;50.976;13.720;2023-11-22T11:56:25;99390.78;;;4.08;55.00
34983;BME280;21187;50.976;13.720;2023-11-22T12:01:29;99394.78;;;4.11;55.26
34983;BME280;21187;50.976;13.720;2023-11-22T12:06:35;99392.41;;;4.09;54.95
34983;BME280;21187;50.976;13.720;2023-11-22T12:11:40;99395.63;;;4.01;54.69
34983;BME280;21187;50.976;13.720;2023-11-22T12:16:44;99390.56;;;3.99;54.75
34983;BME280;21187;50.976;13.720;2023-11-22T12:21:50;99365.69;;;3.89;54.79
34983;BME280;21187;50.976;13.720;2023-11-22T12:26:51;99365.13;;;3.92;54.61
34983;BME280;21187;50.976;13.720;2023-11-22T12:31:53;99361.41;;;3.82;55.02
34983;BME280;21187;50.976;13.720;2023-11-22T12:36:57;99361.97;;;3.79;55.10
34983;BME280;21187;50.976;13.720;2023-11-22T12:41:59;99345.34;;;3.82;54.53
34983;BME280;21187;50.976;13.720;2023-11-22T12:47:11;99339.66;;;3.89;54.86
34983;BME280;21187;50.976;13.720;2023-11-22T12:52:13;99335.09;;;4.00;54.55
34983;BME280;21187;50.976;13.720;2023-11-22T12:57:15;99324.34;;;4.05;54.53
34983;BME280;21187;50.976;13.720;2023-11-22T13:02:21;99332.06;;;4.12;54.59
34983;BME280;21187;50.976;13.720;2023-11-22T13:07:23;99326.69;;;4.12;53.80
34983;BME280;21187;50.976;13.720;2023-11-22T13:12:25;99322.91;;;4.13;53.98
34983;BME280;21187;50.976;13.720;2023-11-22T13:17:27;99322.38;;;4.16;54.12
34983;BME280;21187;50.976;13.720;2023-11-22T13:22:29;99318.38;;;4.13;53.73
34983;BME280;21187;50.976;13.720;2023-11-22T13:27:31;99313.81;;;4.14;54.11
34983;BME280;21187;50.976;13.720;2023-11-22T13:32:33;99328.53;;;4.16;54.06
34983;BME280;21187;50.976;13.720;2023-11-22T13:37:36;99350.03;;;4.06;54.04
34983;BME280;21187;50.976;13.720;2023-11-22T13:42:38;99342.03;;;4.01;54.01
34983;BME280;21187;50.976;13.720;2023-11-22T13:47:41;99332.41;;;4.00;53.94
34983;BME280;21187;50.976;13.720;2023-11-22T13:52:51;99367.78;;;3.97;54.14
34983;BME280;21187;50.976;13.720;2023-11-22T13:58:02;99359.75;;;3.97;53.90
34983;BME280;21187;50.976;13.720;2023-11-22T14:03:05;99354.72;;;3.85;54.06
34983;BME280;21187;50.976;13.720;2023-11-22T14:08:12;99358.03;;;3.56;53.84
34983;BME280;21187;50.976;13.720;2023-11-22T14:13:16;99374.94;;;3.57;54.47
34983;BME280;21187;50.976;13.720;2023-11-22T14:18:18;99369.25;;;3.69;54.68
34983;BME280;21187;50.976;13.720;2023-11-22T14:23:20;99363.06;;;3.73;53.93
34983;BME280;21187;50.976;13.720;2023-11-22T14:28:22;99341.47;;;3.49;54.18
34983;BME280;21187;50.976;13.720;2023-11-22T14:33:24;99327.91;;;3.20;54.25
34983;BME280;21187;50.976;13.720;2023-11-22T14:38:27;99348.00;;;3.17;54.35
34983;BME280;21187;50.976;13.720;2023-11-22T14:43:29;99346.69;;;2.94;54.43
34983;BME280;21187;50.976;13.720;2023-11-22T14:48:31;99321.03;;;2.77;54.91
34983;BME280;21187;50.976;13.720;2023-11-22T14:53:33;99314.09;;;2.66;54.85
34983;BME280;21187;50.976;13.720;2023-11-22T14:58:35;99312.97;;;2.93;54.98
34983;BME280;21187;50.976;13.720;2023-11-22T15:03:37;99306.25;;;3.06;54.48
34983;BME280;21187;50.976;13.720;2023-11-22T15:08:39;99308.63;;;3.17;54.37
34983;BME280;21187;50.976;13.720;2023-11-22T15:13:44;99338.88;;;3.23;54.42
34983;BME280;21187;50.976;13.720;2023-11-22T15:18:46;99360.84;;;2.99;54.30
34983;BME280;21187;50.976;13.720;2023-11-22T15:23:48;99384.69;;;2.91;54.84
34983;BME280;21187;50.976;13.720;2023-11-22T15:28:50;99375.59;;;2.92;54.52
34983;BME280;21187;50.976;13.720;2023-11-22T15:33:54;99352.59;;;2.80;54.69
34983;BME280;21187;50.976;13.720;2023-11-22T15:38:56;99359.00;;;2.74;55.26
34983;BME280;21187;50.976;13.720;2023-11-22T15:43:58;99365.97;;;2.86;55.08
34983;BME280;21187;50.976;13.720;2023-11-22T15:49:00;99358.72;;;3.12;54.60
34983;BME280;21187;50.976;13.720;2023-11-22T15:54:02;99349.34;;;3.20;54.54
34983;BME280;21187;50.976;13.720;2023-11-22T15:59:04;99351.44;;;3.28;54.23
34983;BME280;21187;50.976;13.720;2023-11-22T16:04:06;99364.53;;;3.35;54.45
34983;BME280;21187;50.976;13.720;2023-11-22T16:09:08;99356.25;;;3.31;54.48
34983;BME280;21187;50.976;13.720;2023-11-22T16:14:14;99355.75;;;3.24;54.48
34983;BME280;21187;50.976;13.720;2023-11-22T16:19:17;99342.91;;;3.15;55.20
34983;BME280;21187;50.976;13.720;2023-11-22T16:24:19;99356.28;;;3.21;55.40
34983;BME280;21187;50.976;13.720;2023-11-22T16:29:21;99362.16;;;3.28;54.93
34983;BME280;21187;50.976;13.720;2023-11-22T16:34:22;99360.22;;;3.44;54.57
34983;BME280;21187;50.976;13.720;2023-11-22T16:39:24;99365.31;;;3.40;54.76
34983;BME280;21187;50.976;13.720;2023-11-22T16:44:30;99370.47;;;3.21;55.41
34983;BME280;21187;50.976;13.720;2023-11-22T16:49:32;99358.94;;;3.26;55.30
34983;BME280;21187;50.976;13.720;2023-11-22T16:54:37;99336.47;;;3.22;55.80
34983;BME280;21187;50.976;13.720;2023-11-22T16:59:40;99331.09;;;3.22;55.47
34983;BME280;21187;50.976;13.720;2023-11-22T17:04:43;99341.31;;;3.14;55.51
34983;BME280;21187;50.976;13.720;2023-11-22T17:09:45;99369.94;;;3.09;56.06
34983;BME280;21187;50.976;13.720;2023-11-22T17:14:47;99361.41;;;3.07;55.97
34983;BME280;21187;50.976;13.720;2023-11-22T17:19:50;99371.31;;;2.91;55.74
34983;BME280;21187;50.976;13.720;2023-11-22T17:24:53;99351.81;;;2.85;56.09
34983;BME280;21187;50.976;13.720;2023-11-22T17:29:54;99334.94;;;2.79;56.50
34983;BME280;21187;50.976;13.720;2023-11-22T17:34:57;99340.84;;;2.76;56.64
34983;BME280;21187;50.976;13.720;2023-11-22T17:39:59;99330.66;;;2.78;56.60
34983;BME280;21187;50.976;13.720;2023-11-22T17:45:01;99324.78;;;2.92;56.74
34983;BME280;21187;50.976;13.720;2023-11-22T17:50:06;99317.53;;;3.03;56.12
34983;BME280;21187;50.976;13.720;2023-11-22T17:55:10;99310.81;;;3.10;56.29
34983;BME280;21187;50.976;13.720;2023-11-22T18:00:13;99300.63;;;3.12;56.30
34983;BME280;21187;50.976;13.720;2023-11-22T18:05:18;99302.47;;;3.22;56.14
34983;BME280;21187;50.976;13.720;2023-11-22T18:10:27;99307.25;;;3.36;55.95
34983;BME280;21187;50.976;13.720;2023-11-22T18:15:42;99310.69;;;3.46;55.97
34983;BME280;21187;50.976;13.720;2023-11-22T18:20:45;99306.38;;;3.50;55.66
34983;BME280;21187;50.976;13.720;2023-11-22T18:25:49;99311.72;;;3.50;56.23
34983;BME280;21187;50.976;13.720;2023-11-22T18:30:51;99300.22;;;3.50;56.02
34983;BME280;21187;50.976;13.720;2023-11-22T18:35:54;99277.75;;;3.46;56.04
34983;BME280;21187;50.976;13.720;2023-11-22T18:41:00;99266.78;;;3.42;56.24
34983;BME280;21187;50.976;13.720;2023-11-22T18:46:05;99261.78;;;3.25;56.50
34983;BME280;21187;50.976;13.720;2023-11-22T18:51:09;99253.50;;;3.16;56.56
34983;BME280;21187;50.976;13.720;2023-11-22T18:56:11;99234.25;;;3.09;57.04
34983;BME280;21187;50.976;13.720;2023-11-22T19:01:13;99219.28;;;3.08;56.93
34983;BME280;21187;50.976;13.720;2023-11-22T19:06:17;99221.66;;;3.15;57.20
34983;BME280;21187;50.976;13.720;2023-11-22T19:11:20;99241.22;;;3.15;57.23
34983;BME280;21187;50.976;13.720;2023-11-22T19:16:22;99224.28;;;3.25;57.13
34983;BME280;21187;50.976;13.720;2023-11-22T19:21:25;99213.31;;;3.22;56.99
34983;BME280;21187;50.976;13.720;2023-11-22T19:26:28;99220.03;;;3.19;57.46
34983;BME280;21187;50.976;13.720;2023-11-22T19:31:35;99216.53;;;3.24;56.97
34983;BME280;21187;50.976;13.720;2023-11-22T19:36:38;99243.31;;;3.24;57.54
34983;BME280;21187;50.976;13.720;2023-11-22T19:41:40;99223.44;;;3.35;57.28
34983;BME280;21187;50.976;13.720;2023-11-22T19:46:42;99194.03;;;3.30;57.29
34983;BME280;21187;50.976;13.720;2023-11-22T19:51:45;99188.13;;;3.28;57.14
34983;BME280;21187;50.976;13.720;2023-11-22T19:56:47;99202.63;;;3.22;57.51
34983;BME280;21187;50.976;13.720;2023-11-22T20:01:49;99203.16;;;3.19;57.28
34983;BME280;21187;50.976;13.720;2023-11-22T20:06:52;99202.38;;;3.18;57.59
34983;BME280;21187;50.976;13.720;2023-11-22T20:11:54;99189.78;;;3.24;57.30
34983;BME280;21187;50.976;13.720;2023-11-22T20:16:57;99174.78;;;3.23;57.02
34983;BME280;21187;50.976;13.720;2023-11-22T20:22:00;99176.16;;;3.15;57.02
34983;BME280;21187;50.976;13.720;2023-11-22T20:27:05;99152.34;;;3.13;57.37
34983;BME280;21187;50.976;13.720;2023-11-22T20:32:07;99151.28;;;3.14;57.06
34983;BME280;21187;50.976;13.720;2023-11-22T20:37:10;99139.97;;;3.23;57.06
34983;BME280;21187;50.976;13.720;2023-11-22T20:42:12;99134.06;;;3.26;57.21
34983;BME280;21187;50.976;13.720;2023-11-22T20:47:15;99112.63;;;3.26;57.45
34983;BME280;21187;50.976;13.720;2023-11-22T20:52:17;99108.84;;;3.32;56.96
34983;BME280;21187;50.976;13.720;2023-11-22T20:57:19;99100.81;;;3.32;57.01
34983;BME280;21187;50.976;13.720;2023-11-22T21:02:22;99096.50;;;3.36;57.19
34983;BME280;21187;50.976;13.720;2023-11-22T21:07:24;99098.13;;;3.37;56.92
34983;BME280;21187;50.976;13.720;2023-11-22T21:12:27;99106.69;;;3.39;56.74
34983;BME280;21187;50.976;13.720;2023-11-22T21:17:29;99091.66;;;3.43;57.21
34983;BME280;21187;50.976;13.720;2023-11-22T21:22:43;99085.72;;;3.46;56.54
34983;BME280;21187;50.976;13.720;2023-11-22T21:27:45;99082.78;;;3.48;56.72
34983;BME280;21187;50.976;13.720;2023-11-22T21:32:47;99072.88;;;3.48;56.39
34983;BME280;21187;50.976;13.720;2023-11-22T21:37:49;99063.97;;;3.53;56.55
34983;BME280;21187;50.976;13.720;2023-11-22T21:42:51;99058.06;;;3.56;56.12
34983;BME280;21187;50.976;13.720;2023-11-22T21:47:53;99064.78;;;3.54;56.49
34983;BME280;21187;50.976;13.720;2023-11-22T21:52:56;99058.88;;;3.57;56.10
34983;BME280;21187;50.976;13.720;2023-11-22T21:58:01;99062.63;;;3.56;55.82
34983;BME280;21187;50.976;13.720;2023-11-22T22:03:03;99056.19;;;3.57;56.03
34983;BME280;21187;50.976;13.720;2023-11-22T22:08:06;99040.63;;;3.59;55.76
34983;BME280;21187;50.976;13.720;2023-11-22T22:13:08;99037.41;;;3.62;56.11
34983;BME280;21187;50.976;13.720;2023-11-22T22:18:10;99033.38;;;3.64;55.89
34983;BME280;21187;50.976;13.720;2023-11-22T22:23:12;99002.00;;;3.65;55.95
34983;BME280;21187;50.976;13.720;2023-11-22T22:28:14;98997.91;;;3.73;55.62
34983;BME280;21187;50.976;13.720;2023-11-22T22:33:16;98987.19;;;3.73;55.66
34983;BME280;21187;50.976;13.720;2023-11-22T22:38:18;98989.88;;;3.73;56.10
34983;BME280;21187;50.976;13.720;2023-11-22T22:43:20;98974.59;;;3.73;55.17
34983;BME280;21187;50.976;13.720;2023-11-22T22:48:22;98964.16;;;3.72;56.00
34983;BME280;21187;50.976;13.720;2023-11-22T22:53:25;98955.28;;;3.76;55.79
34983;BME280;21187;50.976;13.720;2023-11-22T22:58:27;98958.47;;;3.78;55.29
34983;BME280;21187;50.976;13.720;2023-11-22T23:03:28;98943.19;;;3.79;55.18
34983;BME280;21187;50.976;13.720;2023-11-22T23:08:37;98935.44;;;3.77;55.29
34983;BME280;21187;50.976;13.720;2023-11-22T23:13:39;98946.16;;;3.77;55.00
34983;BME280;21187;50.976;13.720;2023-11-22T23:18:41;98928.50;;;3.76;54.59
34983;BME280;21187;50.976;13.720;2023-11-22T23:23:44;98935.44;;;3.77;54.27
34983;BME280;21187;50.976;13.720;2023-11-22T23:28:47;98923.13;;;3.76;54.46
34983;BME280;21187;50.976;13.720;2023-11-22T23:33:48;98923.19;;;3.71;54.46
34983;BME280;21187;50.976;13.720;2023-11-22T23:38:52;98911.94;;;3.69;54.72
34983;BME280;21187;50.976;13.720;2023-11-22T23:43:54;98915.94;;;3.72;53.97
34983;BME280;21187;50.976;13.720;2023-11-22T23:48:56;98915.34;;;3.75;53.74
34983;BME280;21187;50.976;13.720;2023-11-22T23:53:58;98917.78;;;3.76;53.60
34983;BME280;21187;50.976;13.720;2023-11-22T23:59:00;98920.16;;;3.78;53.66
